sensor_id;sensor_type;location;lat;lon;timestamp;P1;durP1;ratioP1;P2;durP2;ratioP2
11228;SDS011;5671;47.936;8.716;2022-12-29T00:01:29;2.73;;;2.40;;
11228;SDS011;5671;47.936;8.716;2022-12-29T00:03:57;3.93;;;2.50;;
11228;SDS011;5671;47.936;8.716;2022-12-29T00:06:24;3.67;;;3.27;;
11228;SDS011;5671;47.936;8.716;2022-12-29T00:08:51;3.30;;;2.50;;
11228;SDS011;5671;47.936;8.716;2022-12-29T00:11:19;2.40;;;2.20;;
11228;SDS011;5671;47.936;8.716;2022-12-29T00:13:47;2.50;;;2.30;;
11228;SDS011;5671;47.936;8.716;2022-12-29T00:16:34;2.93;;;2.30;;
11228;SDS011;5671;47.936;8.716;2022-12-29T00:19:02;3.63;;;2.73;;
11228;SDS011;5671;47.936;8.716;2022-12-29T00:21:30;3.07;;;2.57;;
11228;SDS011;5671;47.936;8.716;2022-12-29T00:24:15;4.57;;;2.93;;
11228;SDS011;5671;47.936;8.716;2022-12-29T00:27:09;3.53;;;3.00;;
11228;SDS011;5671;47.936;8.716;2022-12-29T00:29:55;2.77;;;2.30;;
11228;SDS011;5671;47.936;8.716;2022-12-29T00:32:41;4.47;;;3.63;;
11228;SDS011;5671;47.936;8.716;2022-12-29T00:35:28;2.67;;;2.03;;
11228;SDS011;5671;47.936;8.716;2022-12-29T00:37:57;3.03;;;2.30;;
11228;SDS011;5671;47.936;8.716;2022-12-29T00:40:45;2.90;;;2.50;;
11228;SDS011;5671;47.936;8.716;2022-12-29T00:43:38;7.83;;;6.43;;
11228;SDS011;5671;47.936;8.716;2022-12-29T00:46:22;13.93;;;10.17;;
11228;SDS011;5671;47.936;8.716;2022-12-29T00:48:50;8.90;;;6.80;;
11228;SDS011;5671;47.936;8.716;2022-12-29T00:51:34;13.10;;;8.40;;
11228;SDS011;5671;47.936;8.716;2022-12-29T00:54:01;10.03;;;7.07;;
11228;SDS011;5671;47.936;8.716;2022-12-29T00:56:28;5.33;;;3.60;;
11228;SDS011;5671;47.936;8.716;2022-12-29T00:58:55;3.13;;;2.30;;
11228;SDS011;5671;47.936;8.716;2022-12-29T01:01:25;2.43;;;2.23;;
11228;SDS011;5671;47.936;8.716;2022-12-29T01:03:53;3.47;;;2.60;;
11228;SDS011;5671;47.936;8.716;2022-12-29T01:06:20;2.80;;;2.30;;
11228;SDS011;5671;47.936;8.716;2022-12-29T01:08:47;2.80;;;2.40;;
11228;SDS011;5671;47.936;8.716;2022-12-29T01:11:34;3.23;;;2.30;;
11228;SDS011;5671;47.936;8.716;2022-12-29T01:14:00;3.00;;;2.20;;
11228;SDS011;5671;47.936;8.716;2022-12-29T01:16:27;3.80;;;2.00;;
11228;SDS011;5671;47.936;8.716;2022-12-29T01:18:55;2.27;;;2.07;;
11228;SDS011;5671;47.936;8.716;2022-12-29T01:21:22;1.93;;;1.83;;
11228;SDS011;5671;47.936;8.716;2022-12-29T01:23:49;2.90;;;2.30;;
11228;SDS011;5671;47.936;8.716;2022-12-29T01:26:16;2.77;;;2.30;;
11228;SDS011;5671;47.936;8.716;2022-12-29T01:28:44;2.23;;;1.90;;
11228;SDS011;5671;47.936;8.716;2022-12-29T01:31:12;2.57;;;2.30;;
11228;SDS011;5671;47.936;8.716;2022-12-29T01:33:40;2.20;;;2.00;;
11228;SDS011;5671;47.936;8.716;2022-12-29T01:36:10;2.00;;;1.80;;
11228;SDS011;5671;47.936;8.716;2022-12-29T01:38:39;2.17;;;1.80;;
11228;SDS011;5671;47.936;8.716;2022-12-29T01:41:07;4.43;;;1.97;;
11228;SDS011;5671;47.936;8.716;2022-12-29T01:43:39;1.93;;;1.83;;
11228;SDS011;5671;47.936;8.716;2022-12-29T01:46:11;2.00;;;1.90;;
11228;SDS011;5671;47.936;8.716;2022-12-29T01:48:49;1.77;;;1.67;;
11228;SDS011;5671;47.936;8.716;2022-12-29T01:51:20;2.00;;;1.80;;
11228;SDS011;5671;47.936;8.716;2022-12-29T01:53:49;2.07;;;1.87;;
11228;SDS011;5671;47.936;8.716;2022-12-29T01:56:17;2.63;;;1.70;;
11228;SDS011;5671;47.936;8.716;2022-12-29T01:58:46;2.20;;;2.00;;
11228;SDS011;5671;47.936;8.716;2022-12-29T02:01:18;1.77;;;1.67;;
11228;SDS011;5671;47.936;8.716;2022-12-29T02:03:47;2.13;;;2.00;;
11228;SDS011;5671;47.936;8.716;2022-12-29T02:06:16;2.07;;;1.90;;
11228;SDS011;5671;47.936;8.716;2022-12-29T02:08:47;1.80;;;1.70;;
11228;SDS011;5671;47.936;8.716;2022-12-29T02:11:17;1.90;;;1.80;;
11228;SDS011;5671;47.936;8.716;2022-12-29T02:13:44;1.87;;;1.77;;
11228;SDS011;5671;47.936;8.716;2022-12-29T02:16:17;2.00;;;1.60;;
11228;SDS011;5671;47.936;8.716;2022-12-29T02:19:00;2.60;;;1.93;;
11228;SDS011;5671;47.936;8.716;2022-12-29T02:22:00;2.33;;;1.73;;
11228;SDS011;5671;47.936;8.716;2022-12-29T02:27:36;1.80;;;1.70;;
11228;SDS011;5671;47.936;8.716;2022-12-29T02:30:26;2.43;;;1.80;;
11228;SDS011;5671;47.936;8.716;2022-12-29T02:33:05;1.70;;;1.60;;
11228;SDS011;5671;47.936;8.716;2022-12-29T02:35:47;2.20;;;1.60;;
11228;SDS011;5671;47.936;8.716;2022-12-29T02:38:36;1.70;;;1.60;;
11228;SDS011;5671;47.936;8.716;2022-12-29T02:41:15;2.00;;;1.80;;
11228;SDS011;5671;47.936;8.716;2022-12-29T02:43:49;5.80;;;1.70;;
11228;SDS011;5671;47.936;8.716;2022-12-29T02:46:26;2.00;;;1.80;;
11228;SDS011;5671;47.936;8.716;2022-12-29T02:49:03;2.53;;;1.80;;
11228;SDS011;5671;47.936;8.716;2022-12-29T02:51:35;3.43;;;1.97;;
11228;SDS011;5671;47.936;8.716;2022-12-29T02:54:09;2.60;;;1.40;;
11228;SDS011;5671;47.936;8.716;2022-12-29T02:56:53;1.60;;;1.50;;
11228;SDS011;5671;47.936;8.716;2022-12-29T02:59:20;1.73;;;1.40;;
11228;SDS011;5671;47.936;8.716;2022-12-29T03:01:55;3.60;;;2.10;;
11228;SDS011;5671;47.936;8.716;2022-12-29T03:04:59;2.73;;;1.60;;
11228;SDS011;5671;47.936;8.716;2022-12-29T03:07:40;1.20;;;1.10;;
11228;SDS011;5671;47.936;8.716;2022-12-29T03:10:17;1.93;;;1.30;;
11228;SDS011;5671;47.936;8.716;2022-12-29T03:12:56;2.60;;;1.37;;
11228;SDS011;5671;47.936;8.716;2022-12-29T03:15:46;1.87;;;1.30;;
11228;SDS011;5671;47.936;8.716;2022-12-29T03:18:40;2.00;;;1.13;;
11228;SDS011;5671;47.936;8.716;2022-12-29T03:21:14;1.20;;;1.10;;
11228;SDS011;5671;47.936;8.716;2022-12-29T03:23:44;2.63;;;1.57;;
11228;SDS011;5671;47.936;8.716;2022-12-29T03:26:13;3.37;;;1.47;;
11228;SDS011;5671;47.936;8.716;2022-12-29T03:28:44;1.53;;;1.30;;
11228;SDS011;5671;47.936;8.716;2022-12-29T03:31:16;1.53;;;1.40;;
11228;SDS011;5671;47.936;8.716;2022-12-29T03:33:46;1.87;;;1.33;;
11228;SDS011;5671;47.936;8.716;2022-12-29T03:36:17;2.93;;;1.37;;
11228;SDS011;5671;47.936;8.716;2022-12-29T03:38:50;1.53;;;1.40;;
11228;SDS011;5671;47.936;8.716;2022-12-29T03:41:24;3.27;;;1.20;;
11228;SDS011;5671;47.936;8.716;2022-12-29T03:43:54;1.87;;;1.17;;
11228;SDS011;5671;47.936;8.716;2022-12-29T03:46:21;1.43;;;1.33;;
11228;SDS011;5671;47.936;8.716;2022-12-29T03:48:49;1.23;;;1.13;;
11228;SDS011;5671;47.936;8.716;2022-12-29T03:51:16;1.93;;;1.60;;
11228;SDS011;5671;47.936;8.716;2022-12-29T03:53:43;1.47;;;1.37;;
11228;SDS011;5671;47.936;8.716;2022-12-29T03:56:10;1.93;;;1.40;;
11228;SDS011;5671;47.936;8.716;2022-12-29T03:58:37;1.80;;;1.33;;
11228;SDS011;5671;47.936;8.716;2022-12-29T04:01:04;3.60;;;1.50;;
11228;SDS011;5671;47.936;8.716;2022-12-29T04:03:31;1.80;;;1.47;;
11228;SDS011;5671;47.936;8.716;2022-12-29T04:05:59;1.50;;;1.30;;
11228;SDS011;5671;47.936;8.716;2022-12-29T04:08:26;1.30;;;1.20;;
11228;SDS011;5671;47.936;8.716;2022-12-29T04:10:53;1.53;;;1.43;;
11228;SDS011;5671;47.936;8.716;2022-12-29T04:13:20;4.40;;;1.10;;
11228;SDS011;5671;47.936;8.716;2022-12-29T04:15:47;1.23;;;1.10;;
11228;SDS011;5671;47.936;8.716;2022-12-29T04:18:13;1.30;;;1.10;;
11228;SDS011;5671;47.936;8.716;2022-12-29T04:20:41;1.47;;;1.30;;
11228;SDS011;5671;47.936;8.716;2022-12-29T04:23:29;2.27;;;1.20;;
11228;SDS011;5671;47.936;8.716;2022-12-29T04:25:57;2.13;;;1.17;;
11228;SDS011;5671;47.936;8.716;2022-12-29T04:28:24;1.37;;;1.13;;
11228;SDS011;5671;47.936;8.716;2022-12-29T04:30:51;1.93;;;1.20;;
11228;SDS011;5671;47.936;8.716;2022-12-29T04:33:18;1.03;;;1.03;;
11228;SDS011;5671;47.936;8.716;2022-12-29T04:35:46;1.47;;;1.30;;
11228;SDS011;5671;47.936;8.716;2022-12-29T04:38:13;1.57;;;1.20;;
11228;SDS011;5671;47.936;8.716;2022-12-29T04:40:42;1.40;;;1.30;;
11228;SDS011;5671;47.936;8.716;2022-12-29T04:43:09;2.90;;;1.40;;
11228;SDS011;5671;47.936;8.716;2022-12-29T04:45:37;1.90;;;1.40;;
11228;SDS011;5671;47.936;8.716;2022-12-29T04:48:04;1.73;;;1.30;;
11228;SDS011;5671;47.936;8.716;2022-12-29T04:50:31;2.47;;;1.33;;
11228;SDS011;5671;47.936;8.716;2022-12-29T04:52:58;1.50;;;1.30;;
11228;SDS011;5671;47.936;8.716;2022-12-29T04:55:25;1.47;;;1.37;;
11228;SDS011;5671;47.936;8.716;2022-12-29T04:57:54;2.77;;;1.43;;
11228;SDS011;5671;47.936;8.716;2022-12-29T05:00:21;1.30;;;1.20;;
11228;SDS011;5671;47.936;8.716;2022-12-29T05:02:48;1.57;;;1.40;;
11228;SDS011;5671;47.936;8.716;2022-12-29T05:05:15;1.87;;;1.40;;
11228;SDS011;5671;47.936;8.716;2022-12-29T05:07:42;1.57;;;1.37;;
11228;SDS011;5671;47.936;8.716;2022-12-29T05:10:09;3.20;;;1.43;;
11228;SDS011;5671;47.936;8.716;2022-12-29T05:12:37;1.73;;;1.30;;
11228;SDS011;5671;47.936;8.716;2022-12-29T05:15:07;2.03;;;1.33;;
11228;SDS011;5671;47.936;8.716;2022-12-29T05:17:34;1.60;;;1.50;;
11228;SDS011;5671;47.936;8.716;2022-12-29T05:20:02;1.53;;;1.30;;
11228;SDS011;5671;47.936;8.716;2022-12-29T05:22:29;1.63;;;1.30;;
11228;SDS011;5671;47.936;8.716;2022-12-29T05:24:56;1.93;;;1.57;;
11228;SDS011;5671;47.936;8.716;2022-12-29T05:27:23;1.60;;;1.50;;
11228;SDS011;5671;47.936;8.716;2022-12-29T05:29:50;1.50;;;1.40;;
11228;SDS011;5671;47.936;8.716;2022-12-29T05:32:18;2.40;;;2.20;;
11228;SDS011;5671;47.936;8.716;2022-12-29T05:34:45;1.83;;;1.70;;
11228;SDS011;5671;47.936;8.716;2022-12-29T05:37:12;2.30;;;1.40;;
11228;SDS011;5671;47.936;8.716;2022-12-29T05:39:39;2.33;;;1.60;;
11228;SDS011;5671;47.936;8.716;2022-12-29T05:42:06;1.97;;;1.60;;
11228;SDS011;5671;47.936;8.716;2022-12-29T05:44:33;3.53;;;2.60;;
11228;SDS011;5671;47.936;8.716;2022-12-29T05:46:59;2.50;;;2.10;;
11228;SDS011;5671;47.936;8.716;2022-12-29T05:49:28;2.60;;;2.33;;
11228;SDS011;5671;47.936;8.716;2022-12-29T05:51:54;2.40;;;2.20;;
11228;SDS011;5671;47.936;8.716;2022-12-29T05:54:21;1.93;;;1.83;;
11228;SDS011;5671;47.936;8.716;2022-12-29T05:56:48;2.03;;;1.67;;
11228;SDS011;5671;47.936;8.716;2022-12-29T05:59:15;2.10;;;1.90;;
11228;SDS011;5671;47.936;8.716;2022-12-29T06:01:42;2.00;;;1.80;;
11228;SDS011;5671;47.936;8.716;2022-12-29T06:04:09;2.60;;;2.10;;
11228;SDS011;5671;47.936;8.716;2022-12-29T06:06:37;3.50;;;1.77;;
11228;SDS011;5671;47.936;8.716;2022-12-29T06:09:04;3.30;;;2.37;;
11228;SDS011;5671;47.936;8.716;2022-12-29T06:11:31;5.20;;;2.13;;
11228;SDS011;5671;47.936;8.716;2022-12-29T06:13:59;6.80;;;4.60;;
11228;SDS011;5671;47.936;8.716;2022-12-29T06:16:26;2.93;;;2.10;;
11228;SDS011;5671;47.936;8.716;2022-12-29T06:18:53;4.67;;;2.60;;
11228;SDS011;5671;47.936;8.716;2022-12-29T06:21:20;6.50;;;3.67;;
11228;SDS011;5671;47.936;8.716;2022-12-29T06:23:48;6.97;;;4.70;;
11228;SDS011;5671;47.936;8.716;2022-12-29T06:26:15;9.33;;;5.70;;
11228;SDS011;5671;47.936;8.716;2022-12-29T06:28:42;14.87;;;10.50;;
11228;SDS011;5671;47.936;8.716;2022-12-29T06:31:09;12.60;;;8.07;;
11228;SDS011;5671;47.936;8.716;2022-12-29T06:33:36;10.87;;;8.20;;
11228;SDS011;5671;47.936;8.716;2022-12-29T06:36:03;18.10;;;13.63;;
11228;SDS011;5671;47.936;8.716;2022-12-29T06:38:30;18.63;;;13.57;;
11228;SDS011;5671;47.936;8.716;2022-12-29T06:40:59;16.63;;;13.07;;
11228;SDS011;5671;47.936;8.716;2022-12-29T06:43:25;11.60;;;9.40;;
11228;SDS011;5671;47.936;8.716;2022-12-29T06:45:52;5.33;;;4.07;;
11228;SDS011;5671;47.936;8.716;2022-12-29T06:48:19;6.33;;;3.73;;
11228;SDS011;5671;47.936;8.716;2022-12-29T06:50:46;4.10;;;2.83;;
11228;SDS011;5671;47.936;8.716;2022-12-29T06:53:13;3.57;;;2.90;;
11228;SDS011;5671;47.936;8.716;2022-12-29T06:55:41;4.30;;;2.83;;
11228;SDS011;5671;47.936;8.716;2022-12-29T06:58:09;4.47;;;3.03;;
11228;SDS011;5671;47.936;8.716;2022-12-29T07:00:36;4.10;;;2.60;;
11228;SDS011;5671;47.936;8.716;2022-12-29T07:03:03;3.70;;;2.73;;
11228;SDS011;5671;47.936;8.716;2022-12-29T07:05:30;2.57;;;2.10;;
11228;SDS011;5671;47.936;8.716;2022-12-29T07:07:57;2.50;;;2.23;;
11228;SDS011;5671;47.936;8.716;2022-12-29T07:10:25;5.33;;;2.40;;
11228;SDS011;5671;47.936;8.716;2022-12-29T07:12:51;3.90;;;2.60;;
11228;SDS011;5671;47.936;8.716;2022-12-29T07:15:20;3.10;;;2.07;;
11228;SDS011;5671;47.936;8.716;2022-12-29T07:17:47;2.40;;;2.20;;
11228;SDS011;5671;47.936;8.716;2022-12-29T07:20:15;3.10;;;2.50;;
11228;SDS011;5671;47.936;8.716;2022-12-29T07:22:42;2.40;;;2.20;;
11228;SDS011;5671;47.936;8.716;2022-12-29T07:25:09;2.53;;;2.07;;
11228;SDS011;5671;47.936;8.716;2022-12-29T07:27:36;3.00;;;2.00;;
11228;SDS011;5671;47.936;8.716;2022-12-29T07:30:03;3.10;;;2.20;;
11228;SDS011;5671;47.936;8.716;2022-12-29T07:32:33;5.10;;;2.03;;
11228;SDS011;5671;47.936;8.716;2022-12-29T07:35:04;2.77;;;2.20;;
11228;SDS011;5671;47.936;8.716;2022-12-29T07:37:38;4.97;;;3.80;;
11228;SDS011;5671;47.936;8.716;2022-12-29T07:40:06;4.93;;;3.47;;
11228;SDS011;5671;47.936;8.716;2022-12-29T07:42:35;4.57;;;3.67;;
11228;SDS011;5671;47.936;8.716;2022-12-29T07:45:04;5.27;;;3.67;;
11228;SDS011;5671;47.936;8.716;2022-12-29T07:47:41;7.20;;;5.17;;
11228;SDS011;5671;47.936;8.716;2022-12-29T07:50:08;6.13;;;4.40;;
11228;SDS011;5671;47.936;8.716;2022-12-29T07:52:35;7.60;;;4.10;;
11228;SDS011;5671;47.936;8.716;2022-12-29T07:55:02;3.97;;;3.40;;
11228;SDS011;5671;47.936;8.716;2022-12-29T07:57:29;5.87;;;3.37;;
11228;SDS011;5671;47.936;8.716;2022-12-29T07:59:56;7.67;;;3.60;;
11228;SDS011;5671;47.936;8.716;2022-12-29T08:02:23;5.03;;;3.13;;
11228;SDS011;5671;47.936;8.716;2022-12-29T08:04:52;4.90;;;2.87;;
11228;SDS011;5671;47.936;8.716;2022-12-29T08:07:19;3.80;;;2.70;;
11228;SDS011;5671;47.936;8.716;2022-12-29T08:09:46;3.97;;;2.57;;
11228;SDS011;5671;47.936;8.716;2022-12-29T08:12:13;4.87;;;2.63;;
11228;SDS011;5671;47.936;8.716;2022-12-29T08:14:40;2.87;;;2.03;;
11228;SDS011;5671;47.936;8.716;2022-12-29T08:17:07;2.50;;;2.30;;
11228;SDS011;5671;47.936;8.716;2022-12-29T08:19:35;3.73;;;2.30;;
11228;SDS011;5671;47.936;8.716;2022-12-29T08:22:09;2.53;;;2.30;;
11228;SDS011;5671;47.936;8.716;2022-12-29T08:24:36;3.70;;;2.40;;
11228;SDS011;5671;47.936;8.716;2022-12-29T08:27:03;3.60;;;2.33;;
11228;SDS011;5671;47.936;8.716;2022-12-29T08:29:29;2.07;;;1.87;;
11228;SDS011;5671;47.936;8.716;2022-12-29T08:31:56;3.93;;;2.30;;
11228;SDS011;5671;47.936;8.716;2022-12-29T08:34:25;3.57;;;2.20;;
11228;SDS011;5671;47.936;8.716;2022-12-29T08:36:52;5.80;;;3.10;;
11228;SDS011;5671;47.936;8.716;2022-12-29T08:39:25;3.53;;;2.43;;
11228;SDS011;5671;47.936;8.716;2022-12-29T08:41:53;4.70;;;2.53;;
11228;SDS011;5671;47.936;8.716;2022-12-29T08:44:20;8.13;;;2.97;;
11228;SDS011;5671;47.936;8.716;2022-12-29T08:46:48;4.37;;;2.43;;
11228;SDS011;5671;47.936;8.716;2022-12-29T08:49:14;5.10;;;2.10;;
11228;SDS011;5671;47.936;8.716;2022-12-29T08:51:41;5.47;;;2.47;;
11228;SDS011;5671;47.936;8.716;2022-12-29T08:54:08;2.90;;;1.90;;
11228;SDS011;5671;47.936;8.716;2022-12-29T08:56:37;4.90;;;2.50;;
11228;SDS011;5671;47.936;8.716;2022-12-29T08:59:03;3.77;;;2.37;;
11228;SDS011;5671;47.936;8.716;2022-12-29T09:01:30;3.20;;;2.40;;
11228;SDS011;5671;47.936;8.716;2022-12-29T09:03:58;5.13;;;2.33;;
11228;SDS011;5671;47.936;8.716;2022-12-29T09:06:25;4.43;;;2.10;;
11228;SDS011;5671;47.936;8.716;2022-12-29T09:08:53;3.00;;;2.00;;
11228;SDS011;5671;47.936;8.716;2022-12-29T09:11:21;15.80;;;10.37;;
11228;SDS011;5671;47.936;8.716;2022-12-29T09:13:51;5.57;;;3.93;;
11228;SDS011;5671;47.936;8.716;2022-12-29T09:16:19;4.40;;;2.63;;
11228;SDS011;5671;47.936;8.716;2022-12-29T09:18:47;5.67;;;2.33;;
11228;SDS011;5671;47.936;8.716;2022-12-29T09:21:14;2.73;;;2.07;;
11228;SDS011;5671;47.936;8.716;2022-12-29T09:23:41;3.53;;;2.00;;
11228;SDS011;5671;47.936;8.716;2022-12-29T09:26:08;3.33;;;1.87;;
11228;SDS011;5671;47.936;8.716;2022-12-29T09:28:35;3.70;;;2.27;;
11228;SDS011;5671;47.936;8.716;2022-12-29T09:31:04;3.73;;;2.17;;
11228;SDS011;5671;47.936;8.716;2022-12-29T09:33:31;4.10;;;2.37;;
11228;SDS011;5671;47.936;8.716;2022-12-29T09:35:59;4.87;;;1.93;;
11228;SDS011;5671;47.936;8.716;2022-12-29T09:38:26;2.93;;;2.10;;
11228;SDS011;5671;47.936;8.716;2022-12-29T09:40:54;3.47;;;2.03;;
11228;SDS011;5671;47.936;8.716;2022-12-29T09:43:25;3.03;;;2.13;;
11228;SDS011;5671;47.936;8.716;2022-12-29T09:46:06;3.23;;;1.70;;
11228;SDS011;5671;47.936;8.716;2022-12-29T09:48:45;4.43;;;2.80;;
11228;SDS011;5671;47.936;8.716;2022-12-29T09:51:18;2.60;;;2.30;;
11228;SDS011;5671;47.936;8.716;2022-12-29T09:53:50;5.00;;;3.10;;
11228;SDS011;5671;47.936;8.716;2022-12-29T09:56:23;4.70;;;2.70;;
11228;SDS011;5671;47.936;8.716;2022-12-29T09:58:54;3.10;;;2.60;;
11228;SDS011;5671;47.936;8.716;2022-12-29T10:01:28;5.30;;;3.27;;
11228;SDS011;5671;47.936;8.716;2022-12-29T10:03:59;3.07;;;2.77;;
11228;SDS011;5671;47.936;8.716;2022-12-29T10:06:35;5.00;;;2.53;;
11228;SDS011;5671;47.936;8.716;2022-12-29T10:09:09;3.17;;;2.40;;
11228;SDS011;5671;47.936;8.716;2022-12-29T10:11:46;4.10;;;3.07;;
11228;SDS011;5671;47.936;8.716;2022-12-29T10:14:27;3.40;;;2.30;;
11228;SDS011;5671;47.936;8.716;2022-12-29T10:17:09;4.03;;;2.70;;
11228;SDS011;5671;47.936;8.716;2022-12-29T10:19:51;4.27;;;2.60;;
11228;SDS011;5671;47.936;8.716;2022-12-29T10:22:32;2.57;;;2.20;;
11228;SDS011;5671;47.936;8.716;2022-12-29T10:25:12;5.10;;;2.40;;
11228;SDS011;5671;47.936;8.716;2022-12-29T10:27:47;3.03;;;2.47;;
11228;SDS011;5671;47.936;8.716;2022-12-29T10:30:31;3.67;;;2.27;;
11228;SDS011;5671;47.936;8.716;2022-12-29T10:33:01;2.87;;;2.63;;
11228;SDS011;5671;47.936;8.716;2022-12-29T10:35:32;4.80;;;2.70;;
11228;SDS011;5671;47.936;8.716;2022-12-29T10:38:05;5.87;;;2.40;;
11228;SDS011;5671;47.936;8.716;2022-12-29T10:40:42;7.13;;;2.50;;
11228;SDS011;5671;47.936;8.716;2022-12-29T10:43:15;3.47;;;1.73;;
11228;SDS011;5671;47.936;8.716;2022-12-29T10:45:48;1.90;;;1.70;;
11228;SDS011;5671;47.936;8.716;2022-12-29T10:48:19;5.17;;;1.87;;
11228;SDS011;5671;47.936;8.716;2022-12-29T10:50:48;3.83;;;1.97;;
11228;SDS011;5671;47.936;8.716;2022-12-29T10:53:22;2.33;;;1.53;;
11228;SDS011;5671;47.936;8.716;2022-12-29T10:55:51;3.47;;;1.70;;
11228;SDS011;5671;47.936;8.716;2022-12-29T10:58:19;4.77;;;1.63;;
11228;SDS011;5671;47.936;8.716;2022-12-29T11:00:49;3.83;;;1.40;;
11228;SDS011;5671;47.936;8.716;2022-12-29T11:03:29;2.47;;;1.70;;
11228;SDS011;5671;47.936;8.716;2022-12-29T11:06:13;3.20;;;1.67;;
11228;SDS011;5671;47.936;8.716;2022-12-29T11:08:46;2.47;;;1.27;;
11228;SDS011;5671;47.936;8.716;2022-12-29T11:11:23;4.53;;;1.73;;
11228;SDS011;5671;47.936;8.716;2022-12-29T11:13:56;3.73;;;1.90;;
11228;SDS011;5671;47.936;8.716;2022-12-29T11:16:28;1.83;;;1.60;;
11228;SDS011;5671;47.936;8.716;2022-12-29T11:18:58;3.00;;;1.60;;
11228;SDS011;5671;47.936;8.716;2022-12-29T11:21:27;6.93;;;1.90;;
11228;SDS011;5671;47.936;8.716;2022-12-29T11:23:58;1.90;;;1.57;;
11228;SDS011;5671;47.936;8.716;2022-12-29T11:26:26;3.00;;;1.93;;
11228;SDS011;5671;47.936;8.716;2022-12-29T11:31:50;4.33;;;3.10;;
11228;SDS011;5671;47.936;8.716;2022-12-29T11:34:21;9.37;;;7.97;;
11228;SDS011;5671;47.936;8.716;2022-12-29T11:36:50;5.00;;;4.23;;
11228;SDS011;5671;47.936;8.716;2022-12-29T11:39:33;2.27;;;1.47;;
11228;SDS011;5671;47.936;8.716;2022-12-29T11:42:03;2.30;;;1.80;;
11228;SDS011;5671;47.936;8.716;2022-12-29T11:44:38;3.90;;;1.57;;
11228;SDS011;5671;47.936;8.716;2022-12-29T11:47:14;3.03;;;1.43;;
11228;SDS011;5671;47.936;8.716;2022-12-29T11:49:53;2.67;;;1.50;;
11228;SDS011;5671;47.936;8.716;2022-12-29T11:52:22;2.10;;;1.40;;
11228;SDS011;5671;47.936;8.716;2022-12-29T11:54:53;1.93;;;1.30;;
11228;SDS011;5671;47.936;8.716;2022-12-29T11:57:22;1.80;;;1.20;;
11228;SDS011;5671;47.936;8.716;2022-12-29T12:00:13;2.80;;;1.60;;
11228;SDS011;5671;47.936;8.716;2022-12-29T12:02:44;2.97;;;1.57;;
11228;SDS011;5671;47.936;8.716;2022-12-29T12:05:23;2.60;;;1.53;;
11228;SDS011;5671;47.936;8.716;2022-12-29T12:07:59;1.73;;;1.30;;
11228;SDS011;5671;47.936;8.716;2022-12-29T12:10:31;1.73;;;1.63;;
11228;SDS011;5671;47.936;8.716;2022-12-29T12:13:05;2.17;;;1.30;;
11228;SDS011;5671;47.936;8.716;2022-12-29T12:15:40;2.77;;;1.43;;
11228;SDS011;5671;47.936;8.716;2022-12-29T12:18:17;3.93;;;1.87;;
11228;SDS011;5671;47.936;8.716;2022-12-29T12:20:52;1.83;;;1.60;;
11228;SDS011;5671;47.936;8.716;2022-12-29T12:23:25;1.77;;;1.23;;
11228;SDS011;5671;47.936;8.716;2022-12-29T12:25:59;1.37;;;1.27;;
11228;SDS011;5671;47.936;8.716;2022-12-29T12:28:36;4.47;;;2.40;;
11228;SDS011;5671;47.936;8.716;2022-12-29T12:31:13;2.10;;;1.90;;
11228;SDS011;5671;47.936;8.716;2022-12-29T12:33:46;4.07;;;3.00;;
11228;SDS011;5671;47.936;8.716;2022-12-29T12:36:24;7.67;;;3.80;;
11228;SDS011;5671;47.936;8.716;2022-12-29T12:39:11;17.00;;;10.70;;
11228;SDS011;5671;47.936;8.716;2022-12-29T12:41:47;12.23;;;8.73;;
11228;SDS011;5671;47.936;8.716;2022-12-29T12:44:27;8.77;;;4.97;;
11228;SDS011;5671;47.936;8.716;2022-12-29T12:47:10;3.07;;;2.47;;
11228;SDS011;5671;47.936;8.716;2022-12-29T12:50:04;2.90;;;2.10;;
11228;SDS011;5671;47.936;8.716;2022-12-29T12:52:42;1.50;;;1.40;;
11228;SDS011;5671;47.936;8.716;2022-12-29T12:55:27;5.97;;;2.67;;
11228;SDS011;5671;47.936;8.716;2022-12-29T12:58:03;1.93;;;1.60;;
11228;SDS011;5671;47.936;8.716;2022-12-29T13:00:42;2.60;;;1.80;;
11228;SDS011;5671;47.936;8.716;2022-12-29T13:03:27;3.77;;;1.50;;
11228;SDS011;5671;47.936;8.716;2022-12-29T13:06:07;1.43;;;1.10;;
11228;SDS011;5671;47.936;8.716;2022-12-29T13:08:52;2.93;;;0.77;;
11228;SDS011;5671;47.936;8.716;2022-12-29T13:11:34;4.03;;;1.13;;
11228;SDS011;5671;47.936;8.716;2022-12-29T13:14:18;2.73;;;1.30;;
11228;SDS011;5671;47.936;8.716;2022-12-29T13:16:58;3.53;;;1.23;;
11228;SDS011;5671;47.936;8.716;2022-12-29T13:19:35;1.80;;;0.77;;
11228;SDS011;5671;47.936;8.716;2022-12-29T13:22:07;1.50;;;1.10;;
11228;SDS011;5671;47.936;8.716;2022-12-29T13:24:44;0.87;;;0.80;;
11228;SDS011;5671;47.936;8.716;2022-12-29T13:27:19;1.67;;;1.20;;
11228;SDS011;5671;47.936;8.716;2022-12-29T13:29:55;1.53;;;1.10;;
11228;SDS011;5671;47.936;8.716;2022-12-29T13:32:35;1.43;;;0.73;;
11228;SDS011;5671;47.936;8.716;2022-12-29T13:35:14;2.43;;;1.00;;
11228;SDS011;5671;47.936;8.716;2022-12-29T13:37:54;1.87;;;0.80;;
11228;SDS011;5671;47.936;8.716;2022-12-29T13:40:26;1.60;;;0.80;;
11228;SDS011;5671;47.936;8.716;2022-12-29T13:42:59;1.10;;;1.00;;
11228;SDS011;5671;47.936;8.716;2022-12-29T13:45:28;0.67;;;0.67;;
11228;SDS011;5671;47.936;8.716;2022-12-29T13:47:59;1.17;;;1.00;;
11228;SDS011;5671;47.936;8.716;2022-12-29T13:50:33;0.73;;;0.73;;
11228;SDS011;5671;47.936;8.716;2022-12-29T13:53:06;4.70;;;1.20;;
11228;SDS011;5671;47.936;8.716;2022-12-29T13:55:47;1.30;;;1.20;;
11228;SDS011;5671;47.936;8.716;2022-12-29T13:58:19;1.60;;;1.50;;
11228;SDS011;5671;47.936;8.716;2022-12-29T14:00:55;1.30;;;1.20;;
11228;SDS011;5671;47.936;8.716;2022-12-29T14:03:38;4.07;;;2.23;;
11228;SDS011;5671;47.936;8.716;2022-12-29T14:06:12;5.20;;;4.30;;
11228;SDS011;5671;47.936;8.716;2022-12-29T14:08:42;2.17;;;1.70;;
11228;SDS011;5671;47.936;8.716;2022-12-29T14:11:12;1.37;;;1.10;;
11228;SDS011;5671;47.936;8.716;2022-12-29T14:13:42;1.17;;;1.10;;
11228;SDS011;5671;47.936;8.716;2022-12-29T14:16:23;3.67;;;1.73;;
11228;SDS011;5671;47.936;8.716;2022-12-29T14:18:56;2.93;;;2.10;;
11228;SDS011;5671;47.936;8.716;2022-12-29T14:21:31;1.80;;;1.67;;
11228;SDS011;5671;47.936;8.716;2022-12-29T14:33:15;1.20;;;0.83;;
11228;SDS011;5671;47.936;8.716;2022-12-29T14:35:43;2.23;;;1.67;;
11228;SDS011;5671;47.936;8.716;2022-12-29T14:38:29;9.83;;;6.73;;
11228;SDS011;5671;47.936;8.716;2022-12-29T14:41:16;1.40;;;1.20;;
11228;SDS011;5671;47.936;8.716;2022-12-29T14:44:01;2.80;;;1.20;;
11228;SDS011;5671;47.936;8.716;2022-12-29T14:46:42;1.67;;;1.20;;
11228;SDS011;5671;47.936;8.716;2022-12-29T14:49:14;0.77;;;0.77;;
11228;SDS011;5671;47.936;8.716;2022-12-29T14:51:44;4.33;;;1.23;;
11228;SDS011;5671;47.936;8.716;2022-12-29T14:57:11;1.43;;;1.20;;
11228;SDS011;5671;47.936;8.716;2022-12-29T14:59:46;2.47;;;1.30;;
11228;SDS011;5671;47.936;8.716;2022-12-29T15:02:16;2.70;;;1.40;;
11228;SDS011;5671;47.936;8.716;2022-12-29T15:04:46;2.87;;;1.60;;
11228;SDS011;5671;47.936;8.716;2022-12-29T15:07:15;1.43;;;1.03;;
11228;SDS011;5671;47.936;8.716;2022-12-29T15:09:46;2.13;;;1.27;;
11228;SDS011;5671;47.936;8.716;2022-12-29T15:12:26;1.20;;;0.77;;
11228;SDS011;5671;47.936;8.716;2022-12-29T15:15:01;2.67;;;1.00;;
11228;SDS011;5671;47.936;8.716;2022-12-29T15:17:43;0.97;;;0.90;;
11228;SDS011;5671;47.936;8.716;2022-12-29T15:20:14;1.60;;;1.30;;
11228;SDS011;5671;47.936;8.716;2022-12-29T15:22:47;2.20;;;1.67;;
11228;SDS011;5671;47.936;8.716;2022-12-29T15:25:18;2.47;;;1.90;;
11228;SDS011;5671;47.936;8.716;2022-12-29T15:27:48;3.43;;;2.17;;
11228;SDS011;5671;47.936;8.716;2022-12-29T15:30:18;1.70;;;1.60;;
11228;SDS011;5671;47.936;8.716;2022-12-29T15:32:46;3.33;;;1.77;;
11228;SDS011;5671;47.936;8.716;2022-12-29T15:35:22;3.67;;;2.30;;
11228;SDS011;5671;47.936;8.716;2022-12-29T15:37:51;1.63;;;1.20;;
11228;SDS011;5671;47.936;8.716;2022-12-29T15:40:22;2.17;;;1.10;;
11228;SDS011;5671;47.936;8.716;2022-12-29T15:42:53;2.97;;;2.10;;
11228;SDS011;5671;47.936;8.716;2022-12-29T15:45:32;6.03;;;2.87;;
11228;SDS011;5671;47.936;8.716;2022-12-29T15:48:00;2.63;;;1.90;;